createdAt,value
2023-05-22T00:02:32.726Z,35
2023-05-22T00:07:48.703Z,35
2023-05-22T00:13:04.162Z,35
2023-05-22T00:18:20.969Z,35
2023-05-22T00:23:35.885Z,35
2023-05-22T00:28:50.739Z,35
2023-05-22T00:34:07.085Z,35
2023-05-22T00:39:23.072Z,35
2023-05-22T00:44:39.206Z,35
2023-05-22T00:49:56.001Z,35
2023-05-22T00:55:10.921Z,35
2023-05-22T01:00:27.062Z,35
2023-05-22T01:05:42.576Z,35
2023-05-22T01:10:58.122Z,35
2023-05-22T01:16:15.004Z,35
2023-05-22T01:21:29.761Z,35
2023-05-22T01:26:45.333Z,35
2023-05-22T01:32:00.803Z,35
2023-05-22T01:37:16.987Z,35
2023-05-22T01:42:32.514Z,35
2023-05-22T01:47:48.919Z,35
2023-05-22T01:53:04.814Z,35
2023-05-22T01:58:19.726Z,35
2023-05-22T02:03:36.031Z,35
2023-05-22T02:08:51.348Z,35
2023-05-22T02:14:07.523Z,35
2023-05-22T02:19:23.860Z,35
2023-05-22T02:24:39.844Z,36
2023-05-22T03:12:08.564Z,36
2023-05-22T03:17:16.986Z,36
2023-05-22T03:17:23.688Z,36
2023-05-22T03:22:33.784Z,36
2023-05-22T03:27:48.662Z,36
2023-05-22T03:33:04.938Z,36
2023-05-22T03:38:20.987Z,36
2023-05-22T03:43:35.876Z,36
2023-05-22T03:48:50.785Z,36
2023-05-22T03:54:06.923Z,36
2023-05-22T03:59:21.800Z,36
2023-05-22T04:04:37.363Z,36
2023-05-22T04:09:54.113Z,36
2023-05-22T04:15:09.639Z,36
2023-05-22T04:20:25.761Z,36
2023-05-22T04:25:41.983Z,36
2023-05-22T04:30:58.227Z,37
2023-05-22T04:36:13.592Z,37
2023-05-22T04:41:29.792Z,37
2023-05-22T04:46:46.212Z,37
2023-05-22T04:52:01.453Z,37
2023-05-22T04:57:16.973Z,37
2023-05-22T05:02:32.590Z,37
2023-05-22T05:07:50.471Z,37
2023-05-22T05:13:04.177Z,37
2023-05-22T05:18:19.690Z,37
2023-05-22T05:23:35.859Z,37
2023-05-22T05:28:51.417Z,37
2023-05-22T05:34:07.548Z,37
2023-05-22T05:39:23.042Z,37
2023-05-22T05:44:37.958Z,37
2023-05-22T05:49:54.094Z,37
2023-05-22T05:55:10.246Z,37
2023-05-22T06:00:25.181Z,37
2023-05-22T06:05:41.528Z,37
2023-05-22T06:10:56.805Z,37
2023-05-22T06:16:11.803Z,37
2023-05-22T06:21:25.947Z,37
2023-05-22T06:26:42.120Z,37
2023-05-22T06:31:59.057Z,37
2023-05-22T06:37:13.776Z,37
2023-05-22T07:01:18.531Z,37
2023-05-22T07:06:33.157Z,37
2023-05-22T07:11:49.305Z,37
2023-05-22T07:17:04.186Z,37
2023-05-22T07:22:19.760Z,37
2023-05-22T07:27:36.523Z,37
2023-05-22T07:32:52.843Z,36
2023-05-22T07:38:08.193Z,36
2023-05-22T07:43:23.690Z,36
2023-05-22T07:48:39.227Z,36
2023-05-22T07:53:55.353Z,35
2023-05-22T07:59:10.269Z,35
2023-05-22T08:04:25.566Z,34
2023-05-22T08:09:41.329Z,34
2023-05-22T08:14:57.709Z,33
2023-05-22T08:20:12.603Z,33
2023-05-22T08:25:28.518Z,33
2023-05-22T09:02:18.396Z,30
2023-05-22T09:07:34.605Z,30
2023-05-22T09:12:50.862Z,30
2023-05-22T09:18:07.108Z,30
2023-05-22T09:23:22.449Z,29
2023-05-22T09:28:38.577Z,29
2023-05-22T09:33:54.788Z,28
2023-05-22T09:39:11.529Z,28
2023-05-22T09:44:27.844Z,28
2023-05-22T09:49:45.136Z,27
2023-05-22T09:55:01.525Z,27
2023-05-22T10:00:19.382Z,26
2023-05-22T10:05:34.276Z,26
2023-05-22T10:10:50.658Z,25
2023-05-22T10:16:05.430Z,25
2023-05-22T10:21:20.160Z,25
2023-05-22T10:26:36.314Z,25
2023-05-22T10:31:51.243Z,24
2023-05-22T10:37:20.861Z,24
2023-05-22T10:42:22.926Z,24
2023-05-22T10:47:40.026Z,23
2023-05-22T10:52:54.561Z,23
2023-05-22T10:58:10.743Z,24
2023-05-22T11:03:26.407Z,24
2023-05-22T11:08:41.770Z,23
2023-05-22T11:13:56.698Z,24
2023-05-22T11:19:24.405Z,24
2023-05-22T11:24:28.427Z,24
2023-05-22T11:29:45.780Z,24
2023-05-22T11:35:01.955Z,23
2023-05-22T11:40:18.228Z,23
2023-05-22T11:45:34.257Z,23
2023-05-22T11:50:49.807Z,23
2023-05-22T11:56:05.965Z,23
2023-05-22T12:01:22.131Z,23
2023-05-22T12:06:38.367Z,23
2023-05-22T12:11:53.763Z,23
2023-05-22T12:17:08.645Z,23
2023-05-22T12:22:24.800Z,23
2023-05-22T12:27:41.612Z,23
2023-05-22T12:32:57.246Z,23
2023-05-22T12:38:12.651Z,23
2023-05-22T12:43:27.556Z,24
2023-05-22T12:48:45.590Z,24
2023-05-22T12:54:01.793Z,24
2023-05-22T12:59:21.079Z,24
2023-05-22T13:04:33.627Z,24
2023-05-22T13:09:49.004Z,23
2023-05-22T13:57:09.965Z,23
2023-05-22T14:02:24.990Z,23
2023-05-22T14:07:40.362Z,23
2023-05-22T14:12:56.484Z,23
2023-05-22T14:18:10.830Z,23
2023-05-22T14:23:26.930Z,23
2023-05-22T14:28:43.106Z,23
2023-05-22T14:33:59.203Z,22
2023-05-22T14:39:15.353Z,22
2023-05-22T14:44:30.872Z,22
2023-05-22T14:49:47.693Z,22
2023-05-22T14:55:03.856Z,23
2023-05-22T15:00:20.068Z,23
2023-05-22T15:05:35.533Z,23
2023-05-22T15:10:51.694Z,23
2023-05-22T15:16:07.320Z,23
2023-05-22T15:21:22.724Z,23
2023-05-22T15:26:38.878Z,23
2023-05-22T15:31:54.538Z,23
2023-05-22T15:37:11.235Z,23
2023-05-22T15:42:26.722Z,23
2023-05-22T15:47:42.382Z,23
2023-05-22T15:52:57.827Z,23
2023-05-22T15:58:13.411Z,23
2023-05-22T16:04:02.411Z,22
2023-05-22T16:08:43.689Z,22
2023-05-22T16:13:59.205Z,21
2023-05-22T16:19:14.287Z,21
2023-05-22T16:24:28.999Z,21
2023-05-22T16:29:47.046Z,22
2023-05-22T16:35:05.157Z,22
2023-05-22T16:40:20.071Z,22
2023-05-22T16:45:34.891Z,23
2023-05-22T16:50:50.411Z,24
2023-05-22T16:56:06.612Z,24
2023-05-22T17:01:22.555Z,25
2023-05-22T17:06:36.994Z,25
2023-05-22T17:11:51.845Z,26
2023-05-22T17:59:11.537Z,29
2023-05-22T18:04:26.410Z,29
2023-05-22T18:09:43.227Z,29
2023-05-22T18:14:58.149Z,29
2023-05-22T18:20:13.602Z,29
2023-05-22T18:25:28.526Z,29
2023-05-22T18:30:45.316Z,30
2023-05-22T18:36:02.119Z,30
2023-05-22T18:41:16.973Z,30
2023-05-22T18:46:32.576Z,30
2023-05-22T18:51:47.359Z,30
2023-05-22T18:57:02.264Z,30
2023-05-22T19:02:17.860Z,30
2023-05-22T19:07:32.641Z,30
2023-05-22T19:12:48.843Z,30
2023-05-22T19:18:05.185Z,30
2023-05-22T19:23:21.131Z,30
2023-05-22T19:28:37.924Z,30
2023-05-22T19:33:52.806Z,31
2023-05-22T19:39:08.962Z,31
2023-05-22T19:44:23.899Z,31
2023-05-22T19:49:38.099Z,31
2023-05-22T19:54:54.884Z,31
2023-05-22T20:00:10.447Z,31
2023-05-22T20:05:25.313Z,31
2023-05-22T20:10:42.109Z,32
2023-05-22T20:15:56.437Z,32
2023-05-22T20:21:12.475Z,32
2023-05-22T20:26:29.959Z,32
2023-05-22T20:31:45.718Z,32
2023-05-22T20:37:00.944Z,32
2023-05-22T20:42:15.846Z,32
2023-05-22T20:47:32.821Z,32
2023-05-22T20:52:47.514Z,32
2023-05-22T20:58:03.693Z,32
2023-05-22T21:03:20.069Z,32
2023-05-22T21:08:34.740Z,32
2023-05-22T21:13:50.884Z,32
2023-05-22T21:19:07.766Z,32
2023-05-22T22:06:28.680Z,31
2023-05-22T22:11:45.464Z,31
2023-05-22T22:17:00.971Z,31
2023-05-22T22:22:17.158Z,31
2023-05-22T22:27:32.005Z,31
2023-05-22T22:32:49.176Z,31
2023-05-22T22:38:03.110Z,31
2023-05-22T22:43:19.212Z,32
2023-05-22T22:48:35.427Z,32
2023-05-22T22:53:51.716Z,32
2023-05-22T22:59:06.426Z,32
2023-05-22T23:04:21.556Z,32
2023-05-22T23:09:37.511Z,32
2023-05-22T23:14:53.592Z,32
2023-05-22T23:20:09.979Z,32
2023-05-22T23:25:26.583Z,32
2023-05-22T23:30:41.478Z,33
2023-05-22T23:35:56.963Z,33
2023-05-22T23:41:12.496Z,33
2023-05-22T23:46:28.074Z,33
2023-05-22T23:51:43.530Z,33
2023-05-22T23:56:59.684Z,33
